Portada
METAR-TAF:

METAR-TAF

Aeroports :

Komatsujima, Japó

latitud: 34-00N, longitud: 134-38E, altitud: 3 m

Observació

L'informe es va fer fa 15 hores i 13 minuts, a les 05:28 UTC
Vent 22 kt del Sud amb ràfegues de 32 kt
Temperatura 33°C
Humitat 59%
Pressió 1010 hPa
Visibilitat 10 km o més
Núvols disperses a una alçada de 3000 ft
Cel ennuvolat

METAR: RJOP 090528Z 18022G32KT 9999 SCT030 BKN/// 33/24 Q1010 RMK 3CU030 A2982

Hora: 05:41 (20:41 UTC)


TAF: manca

Observacions i pronòstics meteorològics de més de 4000 aeroports (METAR i TAF).

Les estacions disponibles són els punts grocs i vermells al mapa.

Posi el ratolí al punt desitjat per veure el nom de l'estació.

Feu clic per veure les observacions i els pronòstics meteorològics.

Per canviar el mapa: feu clic els botons verds amb una creu de color negre per apropar; al botó verd amb un guió per allunyar la imatge; o en les fletxes verdes per a mapes adjacents.


METAR-TAF: